Time;durP1;ratioP1;P1;durP2;ratioP2;P2;SDS_P1;SDS_P2;PMS_P1;PMS_P2;Temp;Humidity;BMP_temperature;BMP_pressure;BME280_temperature;BME280_humidity;BME280_pressure;Samples;Min_cycle;Max_cycle;Signal;HPM_P1;HPM_P2
2022/10/04 02:37:23;;;;;;;4.57;2.13;;;;;;;;;;5964015;23;20238;-77
2022/10/04 02:40:04;;;;;;;4.70;2.33;;;;;;;;;;5010953;28;20215;-77
2022/10/04 02:42:33;;;;;;;4.20;2.13;;;;;;;;;;5010720;28;20175;-76
2022/10/04 02:45:02;;;;;;;3.73;2.50;;;;;;;;;;5010909;28;20191;-77
2022/10/04 02:47:34;;;;;;;4.20;2.33;;;;;;;;;;5008705;28;20197;-77
2022/10/04 02:50:05;;;;;;;2.87;2.57;;;;;;;;;;4994862;28;20180;-77
2022/10/04 02:52:35;;;;;;;4.73;2.60;;;;;;;;;;4994787;28;20176;-77
2022/10/04 02:55:03;;;;;;;2.80;2.20;;;;;;;;;;4994696;28;20212;-77
2022/10/04 02:57:31;;;;;;;3.80;2.17;;;;;;;;;;4978770;28;20205;-77
2022/10/04 03:00:16;;;;;;;3.40;2.70;;;;;;;;;;4995765;28;20256;-77
2022/10/04 03:03:02;;;;;;;4.13;2.50;;;;;;;;;;4995530;28;20182;-77
2022/10/04 03:05:28;;;;;;;2.90;2.10;;;;;;;;;;4994645;28;20239;-77
2022/10/04 03:07:55;;;;;;;2.60;2.00;;;;;;;;;;4978435;28;20211;-77
2022/10/04 03:10:21;;;;;;;2.57;2.10;;;;;;;;;;4994525;28;20218;-77
2022/10/04 03:12:49;;;;;;;2.40;2.03;;;;;;;;;;4978343;28;20183;-77
2022/10/04 03:15:16;;;;;;;2.40;2.03;;;;;;;;;;4994439;28;20318;-76
2022/10/04 03:17:43;;;;;;;3.17;1.93;;;;;;;;;;4994214;28;20278;-77
2022/10/04 03:20:13;;;;;;;3.90;2.20;;;;;;;;;;4978242;28;20660;-76
2022/10/04 03:22:40;;;;;;;2.70;2.40;;;;;;;;;;4994171;28;20278;-76
2022/10/04 03:25:11;;;;;;;3.33;2.40;;;;;;;;;;4978108;28;20730;-77
2022/10/04 03:27:37;;;;;;;3.13;2.40;;;;;;;;;;4995372;28;20203;-77
2022/10/04 03:30:03;;;;;;;4.70;2.87;;;;;;;;;;4977842;28;20188;-77
2022/10/04 03:32:30;;;;;;;8.97;2.67;;;;;;;;;;4977655;28;20180;-76
2022/10/04 03:34:57;;;;;;;4.27;1.93;;;;;;;;;;4977995;28;20220;-76
2022/10/04 03:37:24;;;;;;;2.97;2.20;;;;;;;;;;4993828;28;20673;-77
2022/10/04 03:39:51;;;;;;;5.83;2.40;;;;;;;;;;4993826;28;20190;-77
2022/10/04 03:42:25;;;;;;;4.57;2.47;;;;;;;;;;4993873;28;20234;-77
2022/10/04 03:44:52;;;;;;;4.20;2.50;;;;;;;;;;4993598;28;20207;-77
2022/10/04 03:47:24;;;;;;;6.13;2.60;;;;;;;;;;4993959;28;20203;-76
2022/10/04 03:49:51;;;;;;;6.20;2.90;;;;;;;;;;4993649;28;20631;-76
2022/10/04 03:52:20;;;;;;;4.33;2.57;;;;;;;;;;4977386;28;20215;-76
2022/10/04 03:54:47;;;;;;;4.00;2.70;;;;;;;;;;4993436;28;20200;-77
2022/10/04 03:57:13;;;;;;;4.27;2.50;;;;;;;;;;4977129;28;20183;-77
2022/10/04 03:59:39;;;;;;;3.60;2.60;;;;;;;;;;4992560;28;20175;-77
2022/10/04 04:02:22;;;;;;;4.27;2.90;;;;;;;;;;4993630;28;20199;-77
2022/10/04 04:04:58;;;;;;;3.83;3.10;;;;;;;;;;4993369;28;20187;-77
2022/10/04 04:07:24;;;;;;;5.33;2.60;;;;;;;;;;4993188;28;20206;-77
2022/10/04 04:09:50;;;;;;;3.63;2.33;;;;;;;;;;4993333;28;20319;-77
2022/10/04 04:12:19;;;;;;;5.33;2.80;;;;;;;;;;4992957;28;20176;-77
2022/10/04 04:14:46;;;;;;;4.63;2.70;;;;;;;;;;4994564;28;20202;-76
2022/10/04 04:17:34;;;;;;;6.10;2.90;;;;;;;;;;4992988;28;20172;-76
2022/10/04 04:20:02;;;;;;;4.50;2.93;;;;;;;;;;4993110;28;20177;-76
2022/10/04 04:22:30;;;;;;;5.07;2.83;;;;;;;;;;4992706;28;20176;-77
2022/10/04 04:24:57;;;;;;;4.37;2.90;;;;;;;;;;4993129;28;20237;-77
2022/10/04 04:27:24;;;;;;;5.20;3.37;;;;;;;;;;4993007;28;20211;-77
2022/10/04 04:29:53;;;;;;;3.63;3.03;;;;;;;;;;4976980;28;20214;-77
2022/10/04 04:32:30;;;;;;;3.43;2.40;;;;;;;;;;4992651;28;20276;-77
2022/10/04 04:35:05;;;;;;;7.07;3.50;;;;;;;;;;4992735;28;20206;-77
2022/10/04 04:37:32;;;;;;;4.30;2.70;;;;;;;;;;4992865;28;20210;-76
2022/10/04 04:40:10;;;;;;;5.10;2.97;;;;;;;;;;4976733;28;20184;-77
2022/10/04 04:42:36;;;;;;;4.47;2.83;;;;;;;;;;4992672;28;20272;-77
2022/10/04 04:45:04;;;;;;;5.30;3.03;;;;;;;;;;4992547;28;20180;-77
2022/10/04 04:47:39;;;;;;;4.30;3.10;;;;;;;;;;4993641;28;20320;-77
2022/10/04 04:50:06;;;;;;;4.83;3.10;;;;;;;;;;4992526;28;20178;-76
2022/10/04 04:52:33;;;;;;;5.37;2.80;;;;;;;;;;4993112;28;20199;-77
2022/10/04 04:55:00;;;;;;;4.93;3.23;;;;;;;;;;4977217;28;20353;-75
2022/10/04 04:57:26;;;;;;;4.93;2.97;;;;;;;;;;4993001;28;20200;-77
2022/10/04 04:59:54;;;;;;;5.20;3.30;;;;;;;;;;4976800;28;20554;-77
2022/10/04 05:02:34;;;;;;;4.33;3.00;;;;;;;;;;4976688;28;20187;-78
2022/10/04 05:05:14;;;;;;;10.70;9.60;;;;;;;;;;4992720;28;20178;-77
2022/10/04 05:07:43;;;;;;;10.23;6.43;;;;;;;;;;4992226;28;20207;-77
2022/10/04 05:10:29;;;;;;;5.60;4.13;;;;;;;;;;4976604;28;20215;-77
2022/10/04 05:12:55;;;;;;;4.70;3.37;;;;;;;;;;4992419;28;20202;-77
2022/10/04 05:15:22;;;;;;;4.97;4.10;;;;;;;;;;4976584;28;20334;-77
2022/10/04 05:17:48;;;;;;;5.43;3.10;;;;;;;;;;4991901;28;20726;-76
2022/10/04 05:20:14;;;;;;;7.93;4.70;;;;;;;;;;4976101;28;20287;-77
2022/10/04 05:22:42;;;;;;;4.53;3.80;;;;;;;;;;4993433;28;20172;-77
2022/10/04 05:25:14;;;;;;;4.50;4.07;;;;;;;;;;4992517;28;20241;-78
2022/10/04 05:27:41;;;;;;;6.90;4.00;;;;;;;;;;4992201;28;20204;-77
2022/10/04 05:30:07;;;;;;;4.63;3.10;;;;;;;;;;4992273;28;20207;-77
2022/10/04 05:32:52;;;;;;;6.33;3.70;;;;;;;;;;4992362;28;20176;-77
2022/10/04 05:35:20;;;;;;;4.43;3.53;;;;;;;;;;4992350;28;20230;-78
2022/10/04 05:37:46;;;;;;;6.17;3.13;;;;;;;;;;4991956;28;20219;-77
2022/10/04 05:40:12;;;;;;;2.97;2.63;;;;;;;;;;4992164;28;20187;-77
2022/10/04 05:42:45;;;;;;;4.03;2.90;;;;;;;;;;4991883;28;20670;-78
2022/10/04 05:45:14;;;;;;;3.80;3.13;;;;;;;;;;4977174;28;20243;-77
2022/10/04 05:47:42;;;;;;;7.63;3.13;;;;;;;;;;4993133;28;20239;-77
2022/10/04 05:50:19;;;;;;;3.97;2.70;;;;;;;;;;4977118;28;20179;-77
2022/10/04 05:52:46;;;;;;;4.93;3.00;;;;;;;;;;4992170;28;20184;-77
2022/10/04 05:55:14;;;;;;;4.67;3.20;;;;;;;;;;4975826;28;20588;-76
2022/10/04 05:57:47;;;;;;;5.00;2.80;;;;;;;;;;4992064;28;20231;-76
2022/10/04 06:00:19;;;;;;;3.87;2.93;;;;;;;;;;4991999;28;20634;-77
2022/10/04 06:02:54;;;;;;;4.33;3.00;;;;;;;;;;4992303;28;20271;-77
2022/10/04 06:05:39;;;;;;;5.07;3.10;;;;;;;;;;4987578;28;20597;-77
2022/10/04 06:08:08;;;;;;;3.53;2.57;;;;;;;;;;4983494;28;20246;-77
2022/10/04 06:10:43;;;;;;;4.00;3.10;;;;;;;;;;4991666;28;20186;-77
2022/10/04 06:13:19;;;;;;;4.67;2.50;;;;;;;;;;4997625;28;20194;-76
2022/10/04 06:15:48;;;;;;;3.63;2.70;;;;;;;;;;4992806;28;20270;-77
2022/10/04 06:18:21;;;;;;;3.17;2.87;;;;;;;;;;4982995;28;20763;-77
2022/10/04 06:20:56;;;;;;;5.30;2.93;;;;;;;;;;4998673;28;20178;-77
2022/10/04 06:23:24;;;;;;;4.20;2.60;;;;;;;;;;4986073;28;20685;-76
2022/10/04 06:25:57;;;;;;;3.77;2.80;;;;;;;;;;4975209;28;20414;-77
2022/10/04 06:28:27;;;;;;;3.80;2.87;;;;;;;;;;4997226;28;20235;-79
2022/10/04 06:30:59;;;;;;;3.80;3.00;;;;;;;;;;5012550;28;20258;-76
2022/10/04 06:33:26;;;;;;;4.97;2.90;;;;;;;;;;5014220;28;20229;-76
2022/10/04 06:35:57;;;;;;;4.70;2.93;;;;;;;;;;5014240;28;20554;-76
2022/10/04 06:38:30;;;;;;;3.70;2.80;;;;;;;;;;5014502;28;20312;-76
2022/10/04 06:41:08;;;;;;;4.57;2.80;;;;;;;;;;5014298;28;20182;-76
2022/10/04 06:43:34;;;;;;;3.70;2.63;;;;;;;;;;5014399;28;20547;-76
2022/10/04 06:46:06;;;;;;;4.00;3.00;;;;;;;;;;5014249;28;20179;-76
2022/10/04 06:48:50;;;;;;;5.73;3.10;;;;;;;;;;5014262;28;20673;-76
2022/10/04 06:51:29;;;;;;;3.30;2.80;;;;;;;;;;5014044;28;20262;-76
2022/10/04 06:54:19;;;;;;;3.67;3.20;;;;;;;;;;5014108;28;20199;-76
2022/10/04 06:56:55;;;;;;;4.23;3.20;;;;;;;;;;5011307;28;20194;-76
2022/10/04 06:59:48;;;;;;;7.47;3.67;;;;;;;;;;5014289;28;20208;-76
2022/10/04 07:02:18;;;;;;;6.13;4.37;;;;;;;;;;5013880;28;20181;-76
2022/10/04 07:04:56;;;;;;;7.77;4.47;;;;;;;;;;5013883;28;20646;-77
2022/10/04 07:07:37;;;;;;;8.03;3.60;;;;;;;;;;5014044;28;20288;-76
2022/10/04 07:10:15;;;;;;;6.83;4.07;;;;;;;;;;5014333;28;20239;-76
2022/10/04 07:12:43;;;;;;;8.10;4.63;;;;;;;;;;5013678;28;20239;-76
2022/10/04 07:15:19;;;;;;;8.60;4.97;;;;;;;;;;5013723;28;20666;-76
2022/10/04 07:17:46;;;;;;;6.47;4.30;;;;;;;;;;5013613;28;20222;-75
2022/10/04 07:20:39;;;;;;;6.00;4.20;;;;;;;;;;4997547;28;20186;-76
2022/10/04 07:23:08;;;;;;;6.23;4.00;;;;;;;;;;5012349;28;20186;-76
2022/10/04 07:25:36;;;;;;;5.27;4.40;;;;;;;;;;5014842;28;20185;-75
2022/10/04 07:30:56;;;;;;;6.20;4.30;;;;;;;;;;5017684;28;20608;-77
2022/10/04 07:33:23;;;;;;;7.43;4.60;;;;;;;;;;5016422;28;20250;-78
2022/10/04 07:36:03;;;;;;;6.63;4.73;;;;;;;;;;5000100;28;20186;-78
2022/10/04 07:38:31;;;;;;;8.33;5.57;;;;;;;;;;5014325;28;20216;-78
2022/10/04 07:41:02;;;;;;;7.60;5.70;;;;;;;;;;5016588;28;20186;-78
2022/10/04 07:43:30;;;;;;;7.60;5.37;;;;;;;;;;5014615;28;20611;-78
2022/10/04 07:46:04;;;;;;;7.30;5.17;;;;;;;;;;4998209;28;20175;-78
2022/10/04 07:48:30;;;;;;;8.33;4.70;;;;;;;;;;5014566;28;20204;-78
2022/10/04 07:51:02;;;;;;;8.03;5.10;;;;;;;;;;4998054;28;20186;-78
2022/10/04 07:53:43;;;;;;;6.70;4.57;;;;;;;;;;5013967;28;20175;-78
2022/10/04 07:56:16;;;;;;;9.10;4.50;;;;;;;;;;5014334;28;20644;-77
2022/10/04 07:58:47;;;;;;;5.83;4.40;;;;;;;;;;5014123;28;20206;-78
2022/10/04 08:01:29;;;;;;;7.90;4.90;;;;;;;;;;5013890;28;20273;-78
2022/10/04 08:03:57;;;;;;;6.53;4.30;;;;;;;;;;5013974;28;20183;-78
2022/10/04 08:06:38;;;;;;;6.07;4.40;;;;;;;;;;5014190;28;20667;-78
2022/10/04 08:09:16;;;;;;;5.93;4.10;;;;;;;;;;5013861;28;20201;-77
2022/10/04 08:12:01;;;;;;;6.33;4.10;;;;;;;;;;5015134;28;20182;-78
2022/10/04 08:14:51;;;;;;;6.93;4.80;;;;;;;;;;5013717;28;20208;-78
2022/10/04 08:17:17;;;;;;;11.57;7.80;;;;;;;;;;5013551;28;20631;-78
2022/10/04 08:19:52;;;;;;;13.50;8.37;;;;;;;;;;5013505;28;20628;-78
2022/10/04 08:22:25;;;;;;;9.40;7.50;;;;;;;;;;5013538;28;20182;-78
2022/10/04 08:24:55;;;;;;;7.23;4.80;;;;;;;;;;5013802;28;20194;-77
2022/10/04 08:27:35;;;;;;;7.50;4.63;;;;;;;;;;5013668;28;20298;-78
2022/10/04 08:30:17;;;;;;;6.63;5.53;;;;;;;;;;5015212;28;20186;-78
2022/10/04 08:32:54;;;;;;;7.87;4.70;;;;;;;;;;5013725;28;20183;-78
2022/10/04 08:35:35;;;;;;;7.07;4.57;;;;;;;;;;5014802;28;20209;-78
2022/10/04 08:38:04;;;;;;;7.60;4.87;;;;;;;;;;5012953;28;20302;-78
2022/10/04 08:40:43;;;;;;;6.60;4.70;;;;;;;;;;5012266;28;20183;-78
2022/10/04 08:43:28;;;;;;;8.23;5.03;;;;;;;;;;5012270;28;20638;-78
2022/10/04 08:46:08;;;;;;;8.90;4.90;;;;;;;;;;5011703;28;20189;-78
2022/10/04 08:48:54;;;;;;;8.10;5.20;;;;;;;;;;5012130;28;20209;-78
2022/10/04 08:51:20;;;;;;;7.37;5.20;;;;;;;;;;5012051;28;20666;-78
2022/10/04 08:54:12;;;;;;;7.67;4.30;;;;;;;;;;5012250;28;20203;-78
2022/10/04 08:56:57;;;;;;;7.07;4.37;;;;;;;;;;5012301;28;20179;-78
2022/10/04 08:59:29;;;;;;;6.77;4.43;;;;;;;;;;5012046;28;20175;-78
2022/10/04 09:02:13;;;;;;;5.90;4.40;;;;;;;;;;5011688;28;20179;-78
2022/10/04 09:04:53;;;;;;;6.40;4.37;;;;;;;;;;5013203;28;20237;-78
2022/10/04 09:07:43;;;;;;;6.47;4.47;;;;;;;;;;5011912;28;20235;-78
2022/10/04 09:10:27;;;;;;;6.03;4.37;;;;;;;;;;5011779;28;20179;-78
2022/10/04 09:13:14;;;;;;;7.07;4.60;;;;;;;;;;5012811;28;20268;-79
2022/10/04 09:15:53;;;;;;;6.67;4.33;;;;;;;;;;5001596;28;20227;-78
2022/10/04 09:18:21;;;;;;;7.03;4.23;;;;;;;;;;5011529;28;20198;-78
2022/10/04 09:20:50;;;;;;;6.33;4.10;;;;;;;;;;5011747;28;20179;-78
2022/10/04 09:23:20;;;;;;;7.30;4.13;;;;;;;;;;5011597;28;20703;-78
2022/10/04 09:26:05;;;;;;;7.10;4.40;;;;;;;;;;5011752;28;20175;-78
2022/10/04 09:28:51;;;;;;;5.53;3.67;;;;;;;;;;5011271;28;20677;-78
2022/10/04 09:31:26;;;;;;;3.87;2.53;;;;;;;;;;5011478;28;20670;-77
2022/10/04 09:34:11;;;;;;;3.63;2.30;;;;;;;;;;5011448;28;20230;-78
2022/10/04 09:36:53;;;;;;;2.67;1.97;;;;;;;;;;5011026;28;20225;-78
2022/10/04 09:39:31;;;;;;;4.17;2.37;;;;;;;;;;5011323;28;20297;-78
2022/10/04 09:42:09;;;;;;;4.63;2.23;;;;;;;;;;5010880;28;20175;-77
2022/10/04 09:45:05;;;;;;;3.87;2.07;;;;;;;;;;5011198;28;20178;-78
2022/10/04 09:47:44;;;;;;;3.40;2.30;;;;;;;;;;4993667;28;20218;-78
2022/10/04 09:50:12;;;;;;;4.17;2.33;;;;;;;;;;5011176;28;20206;-78
2022/10/04 09:52:57;;;;;;;3.93;2.47;;;;;;;;;;5012329;28;20171;-78
2022/10/04 09:55:42;;;;;;;2.90;1.90;;;;;;;;;;5011202;28;20207;-78
2022/10/04 09:58:21;;;;;;;3.33;2.07;;;;;;;;;;5013447;28;20281;-78
2022/10/04 10:00:47;;;;;;;4.53;2.10;;;;;;;;;;5015302;28;20197;-78
2022/10/04 10:03:32;;;;;;;5.03;2.30;;;;;;;;;;5015072;28;20649;-78
2022/10/04 10:06:04;;;;;;;3.37;1.80;;;;;;;;;;5014833;28;20214;-78
2022/10/04 10:08:36;;;;;;;3.87;2.13;;;;;;;;;;5015194;28;20213;-78
2022/10/04 10:14:28;;;;;;;2.93;1.90;;;;;;;;;;5016053;28;20205;-78
2022/10/04 10:17:16;;;;;;;4.43;2.53;;;;;;;;;;5014928;28;20186;-77
2022/10/04 10:19:45;;;;;;;3.77;2.00;;;;;;;;;;5014891;28;20196;-77
2022/10/04 10:22:29;;;;;;;4.70;1.97;;;;;;;;;;5014694;28;20220;-77
2022/10/04 10:24:58;;;;;;;3.87;2.03;;;;;;;;;;5014688;28;20190;-77
2022/10/04 10:27:31;;;;;;;2.47;1.70;;;;;;;;;;5015899;28;20193;-77
2022/10/04 10:29:58;;;;;;;2.30;1.70;;;;;;;;;;5014642;28;20221;-77
2022/10/04 10:32:24;;;;;;;2.70;2.07;;;;;;;;;;5014337;28;20178;-77
2022/10/04 10:35:09;;;;;;;2.57;1.90;;;;;;;;;;5014576;28;20202;-77
2022/10/04 10:37:35;;;;;;;3.00;1.93;;;;;;;;;;5013963;28;20215;-77
2022/10/04 10:40:24;;;;;;;4.70;1.83;;;;;;;;;;5014705;28;20178;-77
2022/10/04 10:43:08;;;;;;;3.57;1.80;;;;;;;;;;5004671;28;20630;-78
2022/10/04 10:46:10;;;;;;;3.73;1.80;;;;;;;;;;5014279;28;20274;-78
2022/10/04 10:48:55;;;;;;;3.33;1.73;;;;;;;;;;5013340;28;20202;-77
2022/10/04 10:51:39;;;;;;;3.50;1.70;;;;;;;;;;5012575;28;20190;-78
2022/10/04 10:54:05;;;;;;;2.70;1.73;;;;;;;;;;5014073;28;20202;-78
2022/10/04 10:56:34;;;;;;;3.50;2.00;;;;;;;;;;5015339;28;20185;-77
2022/10/04 10:59:06;;;;;;;3.60;1.47;;;;;;;;;;5014035;28;20199;-77
2022/10/04 11:01:52;;;;;;;2.83;1.50;;;;;;;;;;5013853;28;20545;-77
2022/10/04 11:04:31;;;;;;;2.40;1.60;;;;;;;;;;5014187;28;20298;-76
2022/10/04 11:07:06;;;;;;;3.73;1.70;;;;;;;;;;5013957;28;20182;-76
2022/10/04 11:09:32;;;;;;;2.10;1.50;;;;;;;;;;5013631;28;20187;-77
2022/10/04 11:12:14;;;;;;;2.23;1.70;;;;;;;;;;5013753;28;20271;-77
2022/10/04 11:15:05;;;;;;;3.20;1.60;;;;;;;;;;5013823;28;20318;-76
2022/10/04 11:17:49;;;;;;;2.10;1.37;;;;;;;;;;5013952;28;20233;-76
2022/10/04 11:20:34;;;;;;;3.17;1.60;;;;;;;;;;5013796;28;20626;-76
2022/10/04 11:23:19;;;;;;;3.17;1.53;;;;;;;;;;5013494;28;20253;-76
2022/10/04 11:26:04;;;;;;;4.33;1.57;;;;;;;;;;5013799;28;20183;-76
2022/10/04 11:28:45;;;;;;;2.90;1.60;;;;;;;;;;5013498;28;20218;-76
2022/10/04 11:31:16;;;;;;;2.33;1.70;;;;;;;;;;5014512;28;20190;-76
2022/10/04 11:34:01;;;;;;;3.43;1.50;;;;;;;;;;5013539;28;20265;-76
2022/10/04 11:36:33;;;;;;;2.90;1.60;;;;;;;;;;5014507;28;20175;-76
2022/10/04 11:39:18;;;;;;;2.73;1.60;;;;;;;;;;5013221;28;20257;-76
2022/10/04 11:41:51;;;;;;;2.43;1.43;;;;;;;;;;5013123;28;20178;-76
2022/10/04 11:44:36;;;;;;;2.37;1.60;;;;;;;;;;5014482;28;20171;-76
2022/10/04 11:47:20;;;;;;;3.17;1.40;;;;;;;;;;5013274;28;20206;-76
2022/10/04 11:49:55;;;;;;;2.53;1.70;;;;;;;;;;5013033;28;20656;-76
2022/10/04 11:52:21;;;;;;;1.93;1.50;;;;;;;;;;5012835;28;20179;-76
2022/10/04 11:55:00;;;;;;;3.27;1.50;;;;;;;;;;5013118;28;20240;-76
2022/10/04 11:57:46;;;;;;;3.67;1.67;;;;;;;;;;5014159;28;20671;-76
2022/10/04 12:00:19;;;;;;;4.40;1.53;;;;;;;;;;5013932;28;20191;-76
2022/10/04 12:03:14;;;;;;;2.83;1.47;;;;;;;;;;5012690;28;20175;-76
2022/10/04 12:05:47;;;;;;;2.13;1.43;;;;;;;;;;5012851;28;20587;-76
2022/10/04 12:08:20;;;;;;;3.53;1.53;;;;;;;;;;5012631;28;20207;-76
2022/10/04 12:11:04;;;;;;;4.07;1.50;;;;;;;;;;5012727;28;20174;-76
2022/10/04 12:13:42;;;;;;;2.00;1.40;;;;;;;;;;5014041;28;20630;-76
2022/10/04 12:16:28;;;;;;;1.43;1.20;;;;;;;;;;5013821;28;20187;-76
2022/10/04 12:19:11;;;;;;;2.43;1.50;;;;;;;;;;5012523;28;20286;-76
2022/10/04 12:21:43;;;;;;;3.83;1.50;;;;;;;;;;5011618;28;20179;-76
2022/10/04 12:24:31;;;;;;;2.47;1.20;;;;;;;;;;5012695;28;20230;-76
2022/10/04 12:26:58;;;;;;;2.90;1.30;;;;;;;;;;5008849;28;20199;-76
2022/10/04 12:29:44;;;;;;;2.33;1.20;;;;;;;;;;5012393;28;20179;-76
2022/10/04 12:32:14;;;;;;;1.40;1.17;;;;;;;;;;5012266;28;20196;-76
2022/10/04 12:34:58;;;;;;;1.80;1.37;;;;;;;;;;5012347;28;20230;-76
2022/10/04 12:37:29;;;;;;;1.57;1.07;;;;;;;;;;5011808;28;20207;-76
2022/10/04 12:40:14;;;;;;;3.57;1.30;;;;;;;;;;5012201;28;20171;-76
2022/10/04 12:42:53;;;;;;;2.37;1.30;;;;;;;;;;5012027;28;20550;-76
2022/10/04 12:45:34;;;;;;;4.83;1.63;;;;;;;;;;5012286;28;20178;-76
2022/10/04 12:48:13;;;;;;;1.97;1.10;;;;;;;;;;5012020;28;20561;-76
2022/10/04 12:50:45;;;;;;;2.33;1.40;;;;;;;;;;5011964;28;20186;-76
2022/10/04 12:53:17;;;;;;;4.27;1.40;;;;;;;;;;5011992;28;20179;-76
2022/10/04 12:55:43;;;;;;;2.97;1.20;;;;;;;;;;5011983;28;20214;-76
2022/10/04 12:58:29;;;;;;;1.60;1.20;;;;;;;;;;5011929;28;20290;-76
2022/10/04 13:00:59;;;;;;;1.37;1.20;;;;;;;;;;5011919;28;20175;-76
2022/10/04 13:03:25;;;;;;;2.67;1.30;;;;;;;;;;5011823;28;20182;-76
2022/10/04 13:06:13;;;;;;;1.70;1.03;;;;;;;;;;5011892;28;20886;-76
2022/10/04 13:09:15;;;;;;;1.83;1.10;;;;;;;;;;5011805;28;20203;-76
2022/10/04 13:12:00;;;;;;;2.90;1.30;;;;;;;;;;4993989;28;20186;-76
2022/10/04 13:14:38;;;;;;;1.50;1.15;;;;;;;;;;5010139;28;20211;-76
2022/10/04 13:17:23;;;;;;;3.33;1.23;;;;;;;;;;5011517;28;20676;-76
2022/10/04 13:20:02;;;;;;;1.43;1.10;;;;;;;;;;5011445;28;20250;-76
2022/10/04 13:22:47;;;;;;;1.63;1.03;;;;;;;;;;5011621;28;20175;-75
2022/10/04 13:25:23;;;;;;;1.48;1.30;;;;;;;;;;5011306;28;20174;-76
2022/10/04 13:27:52;;;;;;;1.45;1.35;;;;;;;;;;5011470;28;20206;-76
2022/10/04 13:30:26;;;;;;;1.83;1.20;;;;;;;;;;5011425;28;20175;-76
2022/10/04 13:33:03;;;;;;;1.27;1.08;;;;;;;;;;5010913;28;20175;-76
2022/10/04 13:35:32;;;;;;;1.45;1.15;;;;;;;;;;5011307;28;20293;-76
2022/10/04 13:37:58;;;;;;;1.50;1.10;;;;;;;;;;5010890;28;20211;-76
2022/10/04 13:40:36;;;;;;;1.98;1.35;;;;;;;;;;5011241;28;20217;-76
2022/10/04 13:43:20;;;;;;;2.15;1.30;;;;;;;;;;5010997;28;20183;-76
2022/10/04 13:46:06;;;;;;;3.17;1.30;;;;;;;;;;5011194;28;20179;-76
2022/10/04 13:48:37;;;;;;;2.72;1.23;;;;;;;;;;5011283;28;20238;-76
2022/10/04 13:51:09;;;;;;;2.17;1.40;;;;;;;;;;5011149;28;20179;-76
2022/10/04 13:56:35;;;;;;;2.05;1.30;;;;;;;;;;5012672;28;20194;-76
2022/10/04 13:59:26;;;;;;;3.15;1.50;;;;;;;;;;5011231;28;20248;-76
2022/10/04 14:01:52;;;;;;;1.55;1.23;;;;;;;;;;5010969;28;20668;-76
2022/10/04 14:04:18;;;;;;;1.70;1.20;;;;;;;;;;5010971;28;20178;-76
2022/10/04 14:06:47;;;;;;;2.15;1.50;;;;;;;;;;5010874;28;20193;-76
2022/10/04 14:09:32;;;;;;;2.05;1.20;;;;;;;;;;5012142;28;20694;-76
2022/10/04 14:12:17;;;;;;;2.40;1.30;;;;;;;;;;5010658;28;20201;-76
2022/10/04 14:15:03;;;;;;;2.50;1.30;;;;;;;;;;5011022;28;20210;-76
2022/10/04 14:17:32;;;;;;;1.85;1.50;;;;;;;;;;5010848;28;20195;-76
2022/10/04 14:20:01;;;;;;;1.90;1.42;;;;;;;;;;5010855;28;20202;-76
2022/10/04 14:22:33;;;;;;;2.45;1.30;;;;;;;;;;5010557;28;20266;-76
2022/10/04 14:25:10;;;;;;;2.88;1.45;;;;;;;;;;5011120;28;20274;-76
2022/10/04 14:27:39;;;;;;;2.40;1.48;;;;;;;;;;5010995;28;20297;-76
2022/10/04 14:30:13;;;;;;;2.55;1.30;;;;;;;;;;5010854;28;20175;-76
2022/10/04 14:32:58;;;;;;;2.08;1.30;;;;;;;;;;5010499;28;20562;-76
2022/10/04 14:36:03;;;;;;;2.45;1.70;;;;;;;;;;5010678;28;20210;-76
2022/10/04 14:38:38;;;;;;;4.50;1.77;;;;;;;;;;5040607;23;20240;-75
2022/10/04 14:41:07;;;;;;;2.03;1.50;;;;;;;;;;5010459;28;20202;-75
2022/10/04 14:43:52;;;;;;;2.67;1.48;;;;;;;;;;5011841;28;20202;-75
2022/10/04 14:46:37;;;;;;;2.80;1.57;;;;;;;;;;5015965;28;20534;-75
2022/10/04 14:49:14;;;;;;;3.17;2.00;;;;;;;;;;5000389;28;20200;-75
2022/10/04 14:51:48;;;;;;;1.80;1.30;;;;;;;;;;4994397;28;20630;-75
2022/10/04 14:54:14;;;;;;;4.30;1.70;;;;;;;;;;4994582;28;20207;-76
2022/10/04 14:56:44;;;;;;;2.30;1.70;;;;;;;;;;4995809;28;20182;-76
2022/10/04 14:59:22;;;;;;;1.95;1.48;;;;;;;;;;4994497;28;20222;-76
2022/10/04 15:02:01;;;;;;;2.80;1.63;;;;;;;;;;4994284;28;20172;-76
2022/10/04 15:04:57;;;;;;;5.37;1.60;;;;;;;;;;4994494;28;20183;-76
2022/10/04 15:07:24;;;;;;;3.13;1.60;;;;;;;;;;4994266;28;20184;-76
2022/10/04 15:10:09;;;;;;;2.47;1.80;;;;;;;;;;4994377;28;20233;-76
2022/10/04 15:12:44;;;;;;;3.23;1.70;;;;;;;;;;4994158;28;20180;-76
2022/10/04 15:15:22;;;;;;;3.17;1.70;;;;;;;;;;4978047;28;20215;-76
2022/10/04 15:17:51;;;;;;;3.50;1.70;;;;;;;;;;4994402;28;20199;-76
2022/10/04 15:20:23;;;;;;;2.27;1.67;;;;;;;;;;4994130;28;20175;-76
2022/10/04 15:22:54;;;;;;;1.60;1.40;;;;;;;;;;4993909;28;20246;-76
2022/10/04 15:25:50;;;;;;;4.13;1.87;;;;;;;;;;4994117;28;20273;-76
2022/10/04 15:28:35;;;;;;;2.83;1.77;;;;;;;;;;4989666;28;20207;-76
2022/10/04 15:31:07;;;;;;;2.77;1.90;;;;;;;;;;4995113;28;20183;-76
2022/10/04 15:33:43;;;;;;;2.97;1.60;;;;;;;;;;4994172;28;20250;-76
2022/10/04 15:36:14;;;;;;;2.20;1.70;;;;;;;;;;4994801;28;20207;-76
2022/10/04 15:38:40;;;;;;;3.07;1.87;;;;;;;;;;4994055;28;20227;-76
2022/10/04 15:41:12;;;;;;;3.87;2.43;;;;;;;;;;4994933;28;20176;-76
2022/10/04 15:43:43;;;;;;;3.27;2.00;;;;;;;;;;4993785;28;20176;-76
2022/10/04 15:46:30;;;;;;;2.57;2.20;;;;;;;;;;4977881;28;20290;-76
2022/10/04 15:49:15;;;;;;;3.73;1.90;;;;;;;;;;4994871;28;20194;-76
2022/10/04 15:51:49;;;;;;;6.20;2.77;;;;;;;;;;4993730;28;20266;-76
2022/10/04 15:54:35;;;;;;;3.53;2.00;;;;;;;;;;4993419;28;20200;-76
2022/10/04 15:57:20;;;;;;;3.70;3.13;;;;;;;;;;4993204;28;20182;-76
2022/10/04 15:59:55;;;;;;;3.60;2.13;;;;;;;;;;4994645;28;20606;-76
2022/10/04 16:02:21;;;;;;;2.67;1.90;;;;;;;;;;4993131;28;20175;-76
2022/10/04 16:05:12;;;;;;;3.23;2.00;;;;;;;;;;4994531;28;20168;-76
2022/10/04 16:07:55;;;;;;;2.43;1.87;;;;;;;;;;4990807;28;20196;-76
2022/10/04 16:10:51;;;;;;;3.57;2.27;;;;;;;;;;4994599;28;20175;-76
2022/10/04 16:13:17;;;;;;;2.97;2.20;;;;;;;;;;4993090;28;20267;-77
2022/10/04 16:15:49;;;;;;;3.67;2.00;;;;;;;;;;4993137;28;20208;-76
2022/10/04 16:18:34;;;;;;;3.00;2.00;;;;;;;;;;4993149;28;20282;-76
2022/10/04 16:21:00;;;;;;;3.67;2.03;;;;;;;;;;4992800;28;20196;-76
2022/10/04 16:23:28;;;;;;;3.23;2.20;;;;;;;;;;4992905;28;20635;-76
2022/10/04 16:25:55;;;;;;;2.40;1.87;;;;;;;;;;4992859;28;20206;-76
2022/10/04 16:28:27;;;;;;;4.13;1.93;;;;;;;;;;4992981;28;20228;-76
2022/10/04 16:31:16;;;;;;;2.30;2.10;;;;;;;;;;4992879;28;20239;-76
2022/10/04 16:33:51;;;;;;;3.73;2.13;;;;;;;;;;4992657;28;20553;-76
2022/10/04 16:36:19;;;;;;;4.83;2.40;;;;;;;;;;4992661;28;20183;-76
2022/10/04 16:41:55;;;;;;;3.87;2.43;;;;;;;;;;4993998;28;20233;-76
2022/10/04 16:44:37;;;;;;;6.07;2.40;;;;;;;;;;4989534;28;20187;-76
2022/10/04 16:47:16;;;;;;;3.10;2.03;;;;;;;;;;4993775;28;20183;-76
2022/10/04 16:49:53;;;;;;;3.13;2.30;;;;;;;;;;4992452;28;20206;-76
2022/10/04 16:52:28;;;;;;;3.57;2.17;;;;;;;;;;4976318;28;20179;-76
2022/10/04 16:54:58;;;;;;;2.80;2.03;;;;;;;;;;4992197;28;20207;-76
2022/10/04 16:57:26;;;;;;;4.50;2.10;;;;;;;;;;4992330;28;20202;-76
2022/10/04 16:59:56;;;;;;;2.23;1.80;;;;;;;;;;4976917;28;20183;-76
2022/10/04 17:02:29;;;;;;;2.10;1.90;;;;;;;;;;4992225;28;20211;-77
2022/10/04 17:05:13;;;;;;;5.40;2.43;;;;;;;;;;4992113;28;20183;-78
2022/10/04 17:07:58;;;;;;;3.20;2.10;;;;;;;;;;4991923;28;20692;-77
2022/10/04 17:10:33;;;;;;;4.00;2.00;;;;;;;;;;4992542;28;20179;-77
2022/10/04 17:12:59;;;;;;;3.10;1.87;;;;;;;;;;4992028;28;20183;-77
2022/10/04 17:15:31;;;;;;;3.13;2.30;;;;;;;;;;4992417;28;20231;-78
2022/10/04 17:18:03;;;;;;;3.93;2.13;;;;;;;;;;4992098;28;20258;-77
2022/10/04 17:20:38;;;;;;;4.07;2.13;;;;;;;;;;4992706;28;20270;-77
2022/10/04 17:23:11;;;;;;;2.30;1.83;;;;;;;;;;4992673;28;20589;-76
2022/10/04 17:25:56;;;;;;;2.67;1.90;;;;;;;;;;4992647;28;20179;-77
2022/10/04 17:28:41;;;;;;;2.40;1.90;;;;;;;;;;4992462;28;20206;-76
2022/10/04 17:31:24;;;;;;;3.97;2.00;;;;;;;;;;4992225;28;20255;-78
2022/10/04 17:33:50;;;;;;;3.07;2.10;;;;;;;;;;4992188;28;20186;-76
2022/10/04 17:36:37;;;;;;;2.70;2.10;;;;;;;;;;4992266;28;20171;-76
2022/10/04 17:39:13;;;;;;;5.97;2.10;;;;;;;;;;4992186;28;20238;-77
2022/10/04 17:41:45;;;;;;;3.10;2.03;;;;;;;;;;4992266;28;20167;-77
2022/10/04 17:44:32;;;;;;;3.13;2.43;;;;;;;;;;4992038;28;20176;-77
2022/10/04 17:47:21;;;;;;;2.70;1.97;;;;;;;;;;4991805;28;20175;-76
2022/10/04 17:55:47;;;;;;;3.87;2.13;;;;;;;;;;4993441;28;20211;-77
2022/10/04 17:58:18;;;;;;;3.80;2.30;;;;;;;;;;4993275;28;20195;-76
2022/10/04 18:00:58;;;;;;;4.90;2.10;;;;;;;;;;4976082;28;20214;-77
2022/10/04 18:03:31;;;;;;;3.83;2.07;;;;;;;;;;4992131;28;20168;-77
2022/10/04 18:06:00;;;;;;;2.73;2.13;;;;;;;;;;4992165;28;20592;-76
2022/10/04 18:08:33;;;;;;;4.17;2.43;;;;;;;;;;4975759;28;20319;-77
2022/10/04 18:11:02;;;;;;;6.93;2.27;;;;;;;;;;4991782;28;20556;-79
2022/10/04 18:13:28;;;;;;;3.27;2.37;;;;;;;;;;4991673;28;20175;-78
2022/10/04 18:16:23;;;;;;;5.50;2.53;;;;;;;;;;4993048;28;20542;-76
2022/10/04 18:18:49;;;;;;;3.77;2.20;;;;;;;;;;4988150;28;20245;-76
2022/10/04 18:21:18;;;;;;;6.90;2.60;;;;;;;;;;4978967;28;20180;-76
2022/10/04 18:23:57;;;;;;;3.93;2.60;;;;;;;;;;4995321;28;20184;-75
2022/10/04 18:26:25;;;;;;;4.37;2.40;;;;;;;;;;4995123;28;20199;-76